Billingsley, Alabama
Current Conditions -  °F | °C
As of 3:55 AM on Sunday 23 Nov 2014 (Local Time) from K1A9 Reporting Station
Overcast Overcast  
Wind Chill: 56°   Ceiling: 600
Heat Index: 56°   Visibility: 10mi
Dew Point: 55°   Wind: 10mph
Humidity: 98%   Direction: 90°E
Pressure: 29.92"   Gusts: 16mph
Location:  32.66°N, 86.72°W
Report Text: K1A9 230955Z AUTO 09009G14KT 060V130 10SM OVC006 13/13 A2992 RMK AO2 P0001 T01330130
Loading
Personal Weather Stations






























Interactive Weather Map New forecast layout! Learn more

10-Day Weather Forecast

Advertisements
Track Severe Weather on mobile